createdAt,value
2022-12-04T00:01:31.584Z,100871.00
2022-12-04T00:04:01.614Z,100868.31
2022-12-04T00:06:31.591Z,100866.00
2022-12-04T00:08:59.179Z,100869.06
2022-12-04T00:11:30.694Z,100868.78
2022-12-04T00:14:04.606Z,100867.47
2022-12-04T00:16:34.478Z,100866.81
2022-12-04T00:19:02.151Z,100865.34
2022-12-04T00:21:29.833Z,100857.87
2022-12-04T00:23:57.681Z,100870.44
2022-12-04T00:26:27.575Z,100865.19
2022-12-04T00:28:55.885Z,100870.91
2022-12-04T00:31:28.896Z,100871.47
2022-12-04T00:33:56.823Z,100868.69
2022-12-04T00:36:26.552Z,100878.47
2022-12-04T00:38:54.130Z,100873.22
2022-12-04T00:41:24.572Z,100874.59
2022-12-04T00:43:55.268Z,100872.47
2022-12-04T00:46:23.266Z,100869.12
2022-12-04T00:48:52.316Z,100863.13
2022-12-04T00:51:27.195Z,100862.94
2022-12-04T00:53:55.378Z,100857.37
2022-12-04T00:56:26.111Z,100855.72
2022-12-04T00:58:58.301Z,100865.72
2022-12-04T01:01:26.912Z,100869.69
2022-12-04T01:03:56.247Z,100870.53
2022-12-04T01:06:29.608Z,100869.97
2022-12-04T01:08:58.323Z,100874.63
2022-12-04T01:11:27.840Z,100873.59
2022-12-04T01:13:59.368Z,100875.91
2022-12-04T01:16:32.883Z,100873.69
2022-12-04T01:19:00.921Z,100868.22
2022-12-04T01:21:30.889Z,100872.00
2022-12-04T01:23:58.826Z,100872.13
2022-12-04T01:26:27.184Z,100869.06
2022-12-04T01:28:54.792Z,100873.88
2022-12-04T01:31:26.109Z,100873.31
2022-12-04T01:33:54.029Z,100870.69
2022-12-04T01:36:27.725Z,100880.25
2022-12-04T01:38:55.963Z,100871.63
2022-12-04T01:41:27.993Z,100873.94
2022-12-04T01:44:14.281Z,100873.75
2022-12-04T01:46:45.322Z,100873.50
2022-12-04T01:49:21.348Z,100876.25
2022-12-04T01:51:55.220Z,100875.16
2022-12-04T01:54:37.320Z,100877.56
2022-12-04T01:57:15.264Z,100867.78
2022-12-04T01:59:51.272Z,100877.69
2022-12-04T02:02:36.365Z,100868.50
2022-12-04T02:05:07.782Z,100874.81
2022-12-04T02:07:35.710Z,100858.41
2022-12-04T02:10:03.764Z,100850.47
2022-12-04T02:12:37.526Z,100842.31
2022-12-04T02:15:29.144Z,100846.09
2022-12-04T02:18:08.894Z,100853.22
2022-12-04T02:21:09.099Z,100843.37
2022-12-04T02:24:02.850Z,100861.59
2022-12-04T02:26:50.213Z,100854.28
2022-12-04T02:29:23.528Z,100851.84
2022-12-04T02:32:00.617Z,100858.41
2022-12-04T02:34:36.879Z,100856.03
2022-12-04T02:37:10.946Z,100847.69
2022-12-04T02:39:49.593Z,100847.56
2022-12-04T02:42:21.112Z,100853.78
2022-12-04T02:44:54.853Z,100854.13
2022-12-04T02:47:24.973Z,100866.06
2022-12-04T02:50:01.763Z,100864.88
2022-12-04T02:52:44.404Z,100846.47
2022-12-04T02:55:17.611Z,100863.94
2022-12-04T02:57:52.148Z,100861.09
2022-12-04T03:00:20.364Z,100847.03
2022-12-04T03:03:02.870Z,100845.38
2022-12-04T03:05:44.385Z,100840.72
2022-12-04T03:08:18.020Z,100848.84
2022-12-04T03:10:50.628Z,100844.19
2022-12-04T03:13:27.325Z,100843.59
2022-12-04T03:16:02.877Z,100837.13
2022-12-04T03:18:52.474Z,100839.97
2022-12-04T03:21:29.129Z,100836.66
2022-12-04T03:24:03.771Z,100842.94
2022-12-04T03:26:48.286Z,100844.91
2022-12-04T03:29:28.233Z,100849.16
2022-12-04T03:32:04.580Z,100845.81
2022-12-04T03:34:42.314Z,100844.69
2022-12-04T03:37:16.907Z,100844.69
2022-12-04T03:39:56.876Z,100836.66
2022-12-04T03:42:28.793Z,100838.31
2022-12-04T03:45:03.955Z,100838.31
2022-12-04T03:47:38.021Z,100841.47
2022-12-04T03:50:17.328Z,100848.19
2022-12-04T03:52:54.792Z,100849.88
2022-12-04T03:55:32.825Z,100857.78
2022-12-04T03:58:06.300Z,100852.75
2022-12-04T04:00:38.853Z,100851.63
2022-12-04T04:03:18.998Z,100851.59
2022-12-04T04:05:51.504Z,100838.69
2022-12-04T04:08:31.091Z,100850.69
2022-12-04T04:11:11.955Z,100849.31
2022-12-04T04:14:05.836Z,100843.97
2022-12-04T04:16:55.150Z,100841.81
2022-12-04T04:19:40.564Z,100847.84
2022-12-04T04:22:28.606Z,100849.41
2022-12-04T04:25:09.107Z,100851.75
2022-12-04T04:27:36.629Z,100849.25
2022-12-04T04:30:06.195Z,100854.59
2022-12-04T04:32:43.749Z,100854.13
2022-12-04T04:35:39.896Z,100858.13
2022-12-04T04:38:14.912Z,100864.16
2022-12-04T04:40:53.076Z,100868.50
2022-12-04T04:43:34.268Z,100867.06
2022-12-04T04:46:25.927Z,100865.88
2022-12-04T04:48:58.885Z,100852.59
2022-12-04T04:51:32.229Z,100857.94
2022-12-04T04:54:03.530Z,100858.44
2022-12-04T04:56:31.788Z,100850.22
2022-12-04T04:59:01.553Z,100848.19
2022-12-04T05:01:29.840Z,100856.06
2022-12-04T05:03:57.395Z,100862.94
2022-12-04T05:06:25.143Z,100867.00
2022-12-04T05:08:55.136Z,100874.37
2022-12-04T05:11:23.696Z,100868.38
2022-12-04T05:13:51.168Z,100870.03
2022-12-04T05:16:18.853Z,100863.66
2022-12-04T05:19:07.381Z,100864.69
2022-12-04T05:21:34.505Z,100856.47
2022-12-04T05:24:02.501Z,100854.56
2022-12-04T05:26:30.298Z,100855.25
2022-12-04T05:29:00.488Z,100856.28
2022-12-04T05:31:28.193Z,100850.44
2022-12-04T05:33:55.741Z,100861.06
2022-12-04T05:36:23.263Z,100863.16
2022-12-04T05:38:52.941Z,100858.00
2022-12-04T05:41:20.507Z,100857.69
2022-12-04T05:43:48.021Z,100847.22
2022-12-04T05:46:17.918Z,100851.75
2022-12-04T05:48:45.436Z,100852.06
2022-12-04T05:51:15.483Z,100851.75
2022-12-04T05:53:43.010Z,100854.94
2022-12-04T05:56:13.896Z,100851.13
2022-12-04T05:58:41.508Z,100842.66
2022-12-04T06:01:14.148Z,100852.19
2022-12-04T06:03:41.832Z,100851.81
2022-12-04T06:06:26.117Z,100850.50
2022-12-04T06:08:56.450Z,100851.69
2022-12-04T06:11:32.833Z,100855.22
2022-12-04T06:14:02.144Z,100846.34
2022-12-04T06:16:32.236Z,100845.03
2022-12-04T06:19:05.638Z,100857.06
2022-12-04T06:21:36.454Z,100861.22
2022-12-04T06:24:05.061Z,100873.72
2022-12-04T06:26:32.913Z,100873.50
2022-12-04T06:29:01.292Z,100869.47
2022-12-04T06:31:31.057Z,100870.78
2022-12-04T06:34:03.599Z,100834.22
2022-12-04T06:36:31.611Z,100858.47
2022-12-04T06:38:59.492Z,100866.12
2022-12-04T06:41:28.283Z,100863.56
2022-12-04T06:43:56.499Z,100867.97
2022-12-04T06:46:28.628Z,100865.31
2022-12-04T06:49:02.800Z,100855.03
2022-12-04T06:51:33.814Z,100855.31
2022-12-04T06:54:02.484Z,100851.53
2022-12-04T06:56:32.270Z,100846.06
2022-12-04T06:59:01.596Z,100847.50
2022-12-04T07:01:31.047Z,100850.91
2022-12-04T07:04:00.937Z,100842.88
2022-12-04T07:06:31.249Z,100850.63
2022-12-04T07:09:01.886Z,100854.44
2022-12-04T07:11:30.498Z,100839.78
2022-12-04T07:13:58.255Z,100852.88
2022-12-04T07:16:27.581Z,100855.19
2022-12-04T07:18:56.700Z,100853.59
2022-12-04T07:21:27.136Z,100861.91
2022-12-04T07:23:57.346Z,100871.53
2022-12-04T07:26:26.433Z,100870.16
2022-12-04T07:28:55.101Z,100865.31
2022-12-04T07:31:25.032Z,100871.41
2022-12-04T07:33:53.920Z,100856.72
2022-12-04T07:36:25.303Z,100855.91
2022-12-04T07:38:53.083Z,100866.94
2022-12-04T07:41:20.959Z,100865.16
2022-12-04T07:43:48.892Z,100861.66
2022-12-04T07:46:19.995Z,100820.53
2022-12-04T07:48:47.685Z,100866.91
2022-12-04T07:51:18.601Z,100867.31
2022-12-04T07:53:47.013Z,100869.00
2022-12-04T07:56:17.838Z,100862.16
2022-12-04T07:58:45.657Z,100873.97
2022-12-04T08:01:22.248Z,100873.06
2022-12-04T08:03:52.759Z,100857.50
2022-12-04T08:06:22.637Z,100855.31
2022-12-04T08:08:50.941Z,100845.97
2022-12-04T08:11:23.953Z,100848.41
2022-12-04T08:13:59.311Z,100866.38
2022-12-04T08:16:28.354Z,100861.81
2022-12-04T08:18:56.842Z,100871.34
2022-12-04T08:21:27.773Z,100862.69
2022-12-04T08:23:57.222Z,100868.13
2022-12-04T08:26:26.908Z,100848.66
2022-12-04T08:28:56.163Z,100850.53
2022-12-04T08:31:29.176Z,100841.19
2022-12-04T08:33:59.074Z,100840.34
2022-12-04T08:36:27.493Z,100843.44
2022-12-04T08:38:55.362Z,100853.59
2022-12-04T08:41:24.815Z,100851.16
2022-12-04T08:43:54.699Z,100852.19
2022-12-04T08:46:23.295Z,100859.44
2022-12-04T08:48:53.668Z,100849.06
2022-12-04T08:51:26.882Z,100862.78
2022-12-04T08:53:57.113Z,100860.31
2022-12-04T08:56:25.758Z,100865.91
2022-12-04T08:58:54.282Z,100862.97
2022-12-04T09:01:22.371Z,100862.78
2022-12-04T09:03:50.055Z,100857.63
2022-12-04T09:06:18.061Z,100868.59
2022-12-04T09:08:46.043Z,100861.53
2022-12-04T09:11:16.540Z,100856.97
2022-12-04T09:13:45.454Z,100853.25
2022-12-04T09:16:20.965Z,100858.03
2022-12-04T09:18:49.145Z,100861.97
2022-12-04T09:21:19.891Z,100854.91
2022-12-04T09:23:47.679Z,100851.59
2022-12-04T09:26:29.173Z,100851.59
2022-12-04T09:28:59.142Z,100849.50
2022-12-04T09:31:29.841Z,100854.88
2022-12-04T09:34:00.243Z,100847.09
2022-12-04T09:36:28.153Z,100846.72
2022-12-04T09:38:58.718Z,100837.22
2022-12-04T09:41:42.622Z,100829.41
2022-12-04T09:44:15.531Z,100831.47
2022-12-04T09:46:51.742Z,100826.53
2022-12-04T09:49:35.632Z,100818.81
2022-12-04T09:52:09.149Z,100817.81
2022-12-04T09:54:42.640Z,100813.09
2022-12-04T09:57:20.691Z,100810.66
2022-12-04T09:59:51.936Z,100810.19
2022-12-04T10:02:28.891Z,100802.28
2022-12-04T10:04:57.157Z,100809.97
2022-12-04T10:07:32.076Z,100803.50
2022-12-04T10:10:07.425Z,100802.19
2022-12-04T10:12:56.929Z,100798.28
2022-12-04T10:15:55.418Z,100792.25
2022-12-04T10:18:55.409Z,100786.06
2022-12-04T10:21:53.013Z,100788.81
2022-12-04T10:24:41.606Z,100778.88
2022-12-04T10:27:21.908Z,100774.59
2022-12-04T10:29:57.231Z,100775.00
2022-12-04T10:32:33.033Z,100768.47
2022-12-04T10:35:23.955Z,100768.81
2022-12-04T10:38:20.841Z,100765.09
2022-12-04T10:40:53.183Z,100762.56
2022-12-04T10:43:34.483Z,100749.37
2022-12-04T10:46:02.224Z,100766.53
2022-12-04T10:48:37.353Z,100743.31
2022-12-04T10:51:07.822Z,100740.09
2022-12-04T10:53:39.354Z,100740.34
2022-12-04T10:56:26.960Z,100744.91
2022-12-04T10:58:58.970Z,100736.62
2022-12-04T11:01:29.213Z,100732.97
2022-12-04T11:04:01.401Z,100737.56
2022-12-04T11:06:30.068Z,100718.66
2022-12-04T11:08:58.650Z,100723.53
2022-12-04T11:11:36.497Z,100723.00
2022-12-04T11:14:18.994Z,100711.50
2022-12-04T11:16:50.057Z,100701.03
2022-12-04T11:19:24.649Z,100695.44
2022-12-04T11:21:54.639Z,100687.34
2022-12-04T11:24:27.131Z,100691.75
2022-12-04T11:26:55.130Z,100690.66
2022-12-04T11:29:34.445Z,100693.00
2022-12-04T11:32:07.606Z,100697.22
2022-12-04T11:34:41.908Z,100665.69
2022-12-04T11:37:22.299Z,100693.78
2022-12-04T11:39:51.048Z,100684.94
2022-12-04T11:42:30.129Z,100690.66
2022-12-04T11:45:21.928Z,100686.75
2022-12-04T11:47:58.399Z,100676.84
2022-12-04T11:50:29.134Z,100666.69
2022-12-04T11:53:13.217Z,100674.09
2022-12-04T11:56:05.568Z,100659.75
2022-12-04T11:58:49.612Z,100661.28
2022-12-04T12:01:50.966Z,100657.72
2022-12-04T12:05:03.812Z,100655.41
2022-12-04T12:08:02.115Z,100653.41
2022-12-04T12:10:49.456Z,100648.09
2022-12-04T12:13:35.548Z,100651.13
2022-12-04T12:16:21.999Z,100658.25
2022-12-04T12:18:49.526Z,100661.06
2022-12-04T12:21:36.564Z,100665.78
2022-12-04T12:24:24.467Z,100677.63
2022-12-04T12:26:55.152Z,100668.44
2022-12-04T12:29:37.849Z,100667.37
2022-12-04T12:32:20.423Z,100672.34
2022-12-04T12:34:48.977Z,100666.47
2022-12-04T12:37:16.502Z,100668.88
2022-12-04T12:40:00.289Z,100671.94
2022-12-04T12:42:39.796Z,100674.87
2022-12-04T12:45:13.251Z,100667.56
2022-12-04T12:47:46.002Z,100666.38
2022-12-04T12:50:30.113Z,100668.25
2022-12-04T12:53:06.199Z,100656.09
2022-12-04T12:55:51.825Z,100651.38
2022-12-04T12:58:33.763Z,100661.00
2022-12-04T13:01:33.853Z,100658.34
2022-12-04T13:04:11.867Z,100656.66
2022-12-04T13:06:45.759Z,100658.59
2022-12-04T13:09:25.495Z,100651.94
2022-12-04T13:12:01.445Z,100650.78
2022-12-04T13:14:29.012Z,100652.72
2022-12-04T13:17:09.731Z,100652.34
2022-12-04T13:19:44.176Z,100650.81
2022-12-04T13:22:11.658Z,100652.09
2022-12-04T13:25:16.120Z,100658.34
2022-12-04T13:28:19.362Z,100663.03
2022-12-04T13:30:58.891Z,100673.91
2022-12-04T13:33:31.584Z,100679.59
2022-12-04T13:36:14.321Z,100685.63
2022-12-04T13:39:08.593Z,100683.59
2022-12-04T13:41:38.666Z,100676.53
2022-12-04T13:44:15.745Z,100674.06
2022-12-04T13:46:57.376Z,100682.56
2022-12-04T13:49:29.285Z,100676.53
2022-12-04T13:51:58.322Z,100674.87
2022-12-04T13:54:57.647Z,100668.69
2022-12-04T13:57:28.333Z,100678.66
2022-12-04T14:00:29.929Z,100672.06
2022-12-04T14:03:01.283Z,100674.75
2022-12-04T14:05:34.924Z,100681.19
2022-12-04T14:08:19.554Z,100678.94
2022-12-04T14:11:14.174Z,100691.81
2022-12-04T14:13:56.126Z,100694.72
2022-12-04T14:16:36.953Z,100697.00
2022-12-04T14:19:06.163Z,100700.75
2022-12-04T14:21:44.890Z,100701.19
2022-12-04T14:24:41.120Z,100687.69
2022-12-04T14:27:33.801Z,100696.22
2022-12-04T14:30:02.740Z,100697.47
2022-12-04T14:32:35.147Z,100694.97
2022-12-04T14:35:03.797Z,100686.88
2022-12-04T14:37:38.837Z,100691.66
2022-12-04T14:40:07.807Z,100690.00
2022-12-04T14:42:39.419Z,100685.88
2022-12-04T14:45:49.247Z,100688.78
2022-12-04T14:48:29.272Z,100686.28
2022-12-04T14:51:08.983Z,100685.91
2022-12-04T14:53:52.084Z,100690.47
2022-12-04T14:56:40.852Z,100687.94
2022-12-04T14:59:18.984Z,100687.94
2022-12-04T15:01:50.770Z,100693.78
2022-12-04T15:04:32.169Z,100686.53
2022-12-04T15:07:00.959Z,100693.16
2022-12-04T15:09:47.407Z,100697.94
2022-12-04T15:12:34.674Z,100701.47
2022-12-04T15:15:22.244Z,100697.72
2022-12-04T15:17:59.488Z,100698.37
2022-12-04T15:20:28.961Z,100702.50
2022-12-04T15:22:58.965Z,100700.03
2022-12-04T15:25:30.784Z,100701.06
2022-12-04T15:28:09.035Z,100698.37
2022-12-04T15:30:39.176Z,100697.53
2022-12-04T15:33:07.399Z,100697.97
2022-12-04T15:35:39.096Z,100702.53
2022-12-04T15:38:09.786Z,100695.91
2022-12-04T15:40:37.322Z,100698.59
2022-12-04T15:43:17.267Z,100697.38
2022-12-04T15:45:47.695Z,100706.28
2022-12-04T15:48:28.050Z,100695.06
2022-12-04T15:51:02.143Z,100705.25
2022-12-04T15:53:33.830Z,100699.03
2022-12-04T15:56:05.773Z,100705.47
2022-12-04T15:58:39.210Z,100705.47
2022-12-04T16:01:08.670Z,100696.34
2022-12-04T16:03:47.874Z,100703.81
2022-12-04T16:06:15.466Z,100700.47
2022-12-04T16:08:44.862Z,100701.50
2022-12-04T16:11:33.541Z,100702.53
2022-12-04T16:14:10.073Z,100701.72
2022-12-04T16:16:42.375Z,100708.56
2022-12-04T16:19:16.416Z,100702.56
2022-12-04T16:21:44.611Z,100707.13
2022-12-04T16:24:14.297Z,100700.69
2022-12-04T16:26:44.786Z,100702.78
2022-12-04T16:29:12.387Z,100704.63
2022-12-04T16:31:42.050Z,100710.03
2022-12-04T16:34:13.195Z,100701.72
2022-12-04T16:36:41.490Z,100710.03
2022-12-04T16:39:11.782Z,100709.81
2022-12-04T16:41:39.569Z,100702.78
2022-12-04T16:44:14.374Z,100704.22
2022-12-04T16:46:43.866Z,100705.47
2022-12-04T16:49:13.421Z,100707.13
2022-12-04T16:51:49.837Z,100710.03
2022-12-04T16:54:20.020Z,100708.78
2022-12-04T16:56:47.613Z,100706.31
2022-12-04T16:59:15.355Z,100710.66
2022-12-04T17:01:47.816Z,100710.03
2022-12-04T17:04:16.437Z,100708.37
2022-12-04T17:06:44.840Z,100710.25
2022-12-04T17:09:13.235Z,100714.00
2022-12-04T17:11:41.962Z,100703.62
2022-12-04T17:14:09.883Z,100719.19
2022-12-04T17:16:41.174Z,100710.88
2022-12-04T17:19:10.227Z,100708.19
2022-12-04T17:21:38.724Z,100720.62
2022-12-04T17:24:09.170Z,100712.97
2022-12-04T17:26:36.733Z,100708.59
2022-12-04T17:29:05.443Z,100711.69
2022-12-04T17:31:35.540Z,100715.44
2022-12-04T17:34:03.117Z,100714.41
2022-12-04T17:36:30.849Z,100722.91
2022-12-04T17:39:01.475Z,100710.03
2022-12-04T17:41:29.424Z,100722.50
2022-12-04T17:43:57.244Z,100718.34
2022-12-04T17:46:25.197Z,100720.62
2022-12-04T17:48:53.253Z,100723.31
2022-12-04T17:51:23.809Z,100718.75
2022-12-04T17:53:52.423Z,100718.75
2022-12-04T17:56:23.161Z,100717.31
2022-12-04T17:58:51.521Z,100720.00
2022-12-04T18:01:24.778Z,100718.97
2022-12-04T18:03:54.061Z,100717.72
2022-12-04T18:06:26.057Z,100718.75
2022-12-04T18:08:54.232Z,100720.84
2022-12-04T18:11:23.803Z,100717.94
2022-12-04T18:13:57.007Z,100717.09
2022-12-04T18:16:26.827Z,100722.50
2022-12-04T18:18:55.676Z,100732.00
2022-12-04T18:21:24.459Z,100729.31
2022-12-04T18:23:52.676Z,100733.88
2022-12-04T18:26:22.828Z,100733.66
2022-12-04T18:28:51.229Z,100729.09
2022-12-04T18:31:20.464Z,100734.91
2022-12-04T18:33:48.152Z,100746.31
2022-12-04T18:36:20.808Z,100748.41
2022-12-04T18:38:53.796Z,100748.59
2022-12-04T18:41:24.173Z,100743.62
2022-12-04T18:43:52.170Z,100743.22
2022-12-04T18:46:20.815Z,100746.72
2022-12-04T18:48:49.886Z,100749.22
2022-12-04T18:51:27.876Z,100743.00
2022-12-04T18:54:02.481Z,100750.06
2022-12-04T18:56:30.837Z,100740.31
2022-12-04T18:59:00.841Z,100737.81
2022-12-04T19:01:31.223Z,100737.59
2022-12-04T19:04:01.525Z,100738.66
2022-12-04T19:06:35.036Z,100743.62
2022-12-04T19:09:05.508Z,100736.56
2022-12-04T19:11:33.196Z,100740.09
2022-12-04T19:14:03.484Z,100735.94
2022-12-04T19:16:35.512Z,100729.94
2022-12-04T19:19:03.861Z,100735.31
2022-12-04T19:21:34.387Z,100736.97
2022-12-04T19:24:03.672Z,100738.22
2022-12-04T19:26:34.119Z,100746.09
2022-12-04T19:29:03.208Z,100742.59
2022-12-04T19:31:36.320Z,100740.09
2022-12-04T19:34:06.979Z,100742.59
2022-12-04T19:36:37.170Z,100745.47
2022-12-04T19:39:06.011Z,100741.13
2022-12-04T19:41:40.797Z,100747.34
2022-12-04T19:44:46.338Z,100735.13
2022-12-04T19:46:58.262Z,100744.41
2022-12-04T19:49:25.801Z,100746.47
2022-12-04T19:51:53.292Z,100747.31
2022-12-04T19:54:23.771Z,100747.31
2022-12-04T19:56:52.598Z,100746.88
2022-12-04T19:59:20.841Z,100747.94
2022-12-04T20:01:48.589Z,100741.91
2022-12-04T20:04:17.693Z,100745.59
2022-12-04T20:06:46.950Z,100736.91
2022-12-04T20:09:21.732Z,100747.69
2022-12-04T20:11:52.432Z,100746.84
2022-12-04T20:14:19.967Z,100748.09
2022-12-04T20:16:47.861Z,100749.13
2022-12-04T20:19:20.578Z,100751.00
2022-12-04T20:21:56.125Z,100746.44
2022-12-04T20:24:26.518Z,100760.72
2022-12-04T20:26:54.073Z,100760.72
2022-12-04T20:29:24.106Z,100754.72
2022-12-04T20:31:51.795Z,100765.50
2022-12-04T20:34:20.266Z,100763.84
2022-12-04T20:36:49.401Z,100765.91
2022-12-04T20:39:18.146Z,100765.47
2022-12-04T20:41:48.791Z,100767.56
2022-12-04T20:44:20.624Z,100761.75
2022-12-04T20:46:48.993Z,100763.81
2022-12-04T20:49:22.133Z,100771.69
2022-12-04T20:51:54.242Z,100772.91
2022-12-04T20:54:23.323Z,100775.78
2022-12-04T20:56:53.583Z,100770.81
2022-12-04T20:59:23.144Z,100779.72
2022-12-04T21:01:51.435Z,100767.50
2022-12-04T21:04:20.839Z,100775.38
2022-12-04T21:06:48.533Z,100763.13
2022-12-04T21:09:21.320Z,100762.91
2022-12-04T21:11:53.966Z,100765.63
2022-12-04T21:14:45.260Z,100771.00
2022-12-04T21:17:18.779Z,100771.00
2022-12-04T21:19:52.634Z,100764.97
2022-12-04T21:22:20.854Z,100768.72
2022-12-04T21:24:49.321Z,100768.09
2022-12-04T21:27:21.290Z,100772.00
2022-12-04T21:29:51.736Z,100763.31
2022-12-04T21:32:20.551Z,100761.44
2022-12-04T21:34:48.227Z,100764.12
2022-12-04T21:37:16.119Z,100765.16
2022-12-04T21:39:45.863Z,100773.88
2022-12-04T21:42:31.488Z,100774.50
2022-12-04T21:45:03.134Z,100767.84
2022-12-04T21:47:33.251Z,100762.69
2022-12-04T21:50:01.097Z,100771.12
2022-12-04T21:52:29.024Z,100768.00
2022-12-04T21:54:57.048Z,100777.13
2022-12-04T21:57:24.972Z,100786.44
2022-12-04T21:59:57.652Z,100783.94
2022-12-04T22:02:25.692Z,100787.22
2022-12-04T22:04:55.772Z,100787.62
2022-12-04T22:07:23.331Z,100784.94
2022-12-04T22:09:52.055Z,100786.37
2022-12-04T22:15:09.850Z,100785.72
2022-12-04T22:17:37.343Z,100789.25
2022-12-04T22:20:05.380Z,100792.16
2022-12-04T22:22:33.090Z,100784.62
2022-12-04T22:25:01.775Z,100785.66
2022-12-04T22:27:29.497Z,100783.38
2022-12-04T22:29:57.343Z,100781.09
2022-12-04T22:32:24.847Z,100779.41
2022-12-04T22:34:53.343Z,100786.03
2022-12-04T22:37:20.847Z,100772.16
2022-12-04T22:39:48.348Z,100768.44
2022-12-04T22:42:15.871Z,100765.72
2022-12-04T22:44:44.417Z,100760.56
2022-12-04T22:47:11.982Z,100773.81
2022-12-04T22:49:39.534Z,100764.28
2022-12-04T22:52:09.234Z,100766.75
2022-12-04T22:54:36.713Z,100764.06
2022-12-04T22:57:06.636Z,100765.50
2022-12-04T22:59:34.209Z,100765.91
2022-12-04T23:02:04.693Z,100777.09
2022-12-04T23:04:39.715Z,100778.12
2022-12-04T23:07:10.279Z,100773.78
2022-12-04T23:09:37.964Z,100772.09
2022-12-04T23:12:08.093Z,100769.16
2022-12-04T23:14:36.845Z,100771.66
2022-12-04T23:17:04.789Z,100773.31
2022-12-04T23:19:32.573Z,100765.06
2022-12-04T23:22:00.078Z,100761.53
2022-12-04T23:24:31.770Z,100757.16
2022-12-04T23:26:59.298Z,100756.16
2022-12-04T23:29:51.905Z,100747.00
2022-12-04T23:32:14.480Z,100753.66
2022-12-04T23:34:42.013Z,100752.19
2022-12-04T23:37:09.787Z,100767.50
2022-12-04T23:39:37.357Z,100765.84
2022-12-04T23:42:07.573Z,100761.69
2022-12-04T23:44:35.063Z,100771.81
2022-12-04T23:47:04.895Z,100762.06
2022-12-04T23:49:32.538Z,100759.19
2022-12-04T23:52:00.324Z,100759.37
2022-12-04T23:54:30.209Z,100768.28
2022-12-04T23:56:57.738Z,100782.97
2022-12-04T23:59:25.303Z,100772.81
